Jenner, California
Current Conditions -  °F | °C
As of 12:53 PM on Thursday 23 Oct 2014 (Local Time) from KSTS Reporting Station
Overcast Overcast  
Wind Chill: 67°   Ceiling: 12000
Heat Index: 67°   Visibility: 10mi
Dew Point: 58°   Wind: 0mph
Humidity: 73%   Direction: NA
Pressure: 30.04"   Gusts: NA
Location:  38.45°N, 123.12°W
Report Text: KSTS 231953Z 00000KT 10SM FEW013 OVC120 19/14 A3004 RMK AO2 SLP168 T01940144
Loading
Personal Weather Stations






























Interactive Weather Map
Tropical Storm Tracking
New forecast layout! Learn more

10-Day Weather Forecast

Advertisements
Track Severe Weather on mobile